Time;durP1;ratioP1;P1;durP2;ratioP2;P2;SDS_P1;SDS_P2;PMS_P1;PMS_P2;Temp;Humidity;BMP_temperature;BMP_pressure;BME280_temperature;BME280_humidity;BME280_pressure;Samples;Min_cycle;Max_cycle;Signal;HPM_P1;HPM_P2
2023/02/22 00:04:34;;;;;;;11.30;7.45;;;;;;;6.85;88.74;98025.03;4252706;27;20817;-87
2023/02/22 00:06:37;;;;;;;12.55;8.50;;;;;;;6.81;88.35;98016.59;4229042;28;20215;-87
2023/02/22 00:08:40;;;;;;;11.73;7.45;;;;;;;6.78;88.37;98026.28;4235402;28;20203;-88
2023/02/22 00:10:44;;;;;;;12.07;7.43;;;;;;;6.80;88.40;98024.47;4231765;28;20702;-88
2023/02/22 00:12:48;;;;;;;8.90;7.25;;;;;;;6.80;87.84;98030.47;4240847;28;20203;-89
2023/02/22 00:14:51;;;;;;;10.77;7.00;;;;;;;6.76;87.90;98023.78;4200730;28;20652;-87
2023/02/22 00:16:58;;;;;;;11.48;7.25;;;;;;;6.75;88.29;98021.25;4233029;28;20223;-88
2023/02/22 00:19:01;;;;;;;10.48;7.22;;;;;;;6.72;88.49;98021.44;4218294;28;20210;-87
2023/02/22 00:21:09;;;;;;;10.25;7.10;;;;;;;6.70;88.88;98028.47;4218355;28;20310;-88
2023/02/22 00:23:17;;;;;;;10.85;7.00;;;;;;;6.71;89.37;98030.13;4197548;28;20746;-88
2023/02/22 00:25:22;;;;;;;10.18;7.05;;;;;;;6.72;89.05;98021.44;4200978;28;20660;-88
2023/02/22 00:27:25;;;;;;;9.32;6.72;;;;;;;6.71;88.38;98024.97;4213436;28;20284;-88
2023/02/22 00:29:28;;;;;;;11.38;7.28;;;;;;;6.68;88.82;98019.94;4208795;28;20209;-88
2023/02/22 00:31:36;;;;;;;11.32;7.10;;;;;;;6.66;89.23;98025.22;4218591;28;20210;-87
2023/02/22 00:33:40;;;;;;;10.68;6.88;;;;;;;6.63;88.89;98019.34;4214127;28;20301;-88
2023/02/22 00:35:45;;;;;;;11.32;7.32;;;;;;;6.57;88.99;98014.50;4214602;28;20516;-88
2023/02/22 00:37:50;;;;;;;13.10;8.00;;;;;;;6.47;88.04;98015.91;4213023;28;20628;-88
2023/02/22 00:39:56;;;;;;;13.00;7.53;;;;;;;6.41;87.89;98018.00;4198673;28;20274;-87
2023/02/22 00:41:59;;;;;;;8.68;6.82;;;;;;;6.35;88.02;98016.56;4203489;28;20201;-88
2023/02/22 00:44:04;;;;;;;11.05;7.30;;;;;;;6.32;88.43;98005.53;4218310;28;20282;-88
2023/02/22 00:46:07;;;;;;;13.07;7.60;;;;;;;6.31;88.38;98012.44;4220596;28;20727;-88
2023/02/22 00:48:11;;;;;;;9.80;6.95;;;;;;;6.33;88.46;98018.41;4203418;28;20262;-88
2023/02/22 00:50:14;;;;;;;9.25;6.80;;;;;;;6.35;88.00;98006.19;4220685;28;20207;-88
2023/02/22 00:52:17;;;;;;;10.80;6.95;;;;;;;6.37;88.86;98019.88;4220197;28;20273;-87
2023/02/22 00:54:22;;;;;;;12.13;6.65;;;;;;;6.35;89.30;98016.56;4222988;28;20579;-88
2023/02/22 00:56:25;;;;;;;10.30;6.70;;;;;;;6.37;89.20;98014.72;4204379;28;20221;-88
2023/02/22 00:58:28;;;;;;;11.18;7.00;;;;;;;6.37;89.47;98006.94;4197986;28;20201;-88
2023/02/22 01:00:35;;;;;;;10.65;7.47;;;;;;;6.40;89.85;98011.97;4218044;28;20218;-88
2023/02/22 01:02:38;;;;;;;10.52;7.30;;;;;;;6.39;89.67;98007.72;4211252;28;20208;-88
2023/02/22 01:04:42;;;;;;;18.95;12.88;;;;;;;6.39;89.39;98006.88;4232561;28;20234;-88
2023/02/22 01:06:46;;;;;;;17.45;12.20;;;;;;;6.37;89.52;97996.59;4215356;28;20241;-87
2023/02/22 01:08:49;;;;;;;15.68;10.85;;;;;;;6.33;88.70;97999.41;4202927;28;20302;-88
2023/02/22 01:10:55;;;;;;;12.65;8.15;;;;;;;6.28;88.84;97988.47;4218256;28;20206;-88
2023/02/22 01:12:59;;;;;;;9.95;7.15;;;;;;;6.23;87.63;97996.50;4215901;28;20699;-88
2023/02/22 01:15:04;;;;;;;10.00;8.00;;;;;;;6.16;87.02;97989.13;4187549;28;20225;-87
2023/02/22 01:17:07;;;;;;;11.60;7.97;;;;;;;6.11;86.91;97989.38;4208133;28;20755;-88
2023/02/22 01:19:11;;;;;;;11.40;8.10;;;;;;;6.10;87.70;97979.94;4192653;28;20302;-88
2023/02/22 01:21:15;;;;;;;9.15;7.00;;;;;;;6.09;87.63;97991.22;4210561;28;20293;-88
2023/02/22 01:23:18;;;;;;;11.43;7.85;;;;;;;6.09;87.58;97987.78;4200965;28;20197;-88
2023/02/22 01:25:24;;;;;;;9.02;6.40;;;;;;;6.08;88.44;97989.53;4206341;28;20621;-88
2023/02/22 01:27:29;;;;;;;9.63;7.28;;;;;;;6.09;88.38;97985.22;4208299;28;20724;-88
2023/02/22 01:29:32;;;;;;;10.27;7.63;;;;;;;6.06;88.46;97985.38;4191529;28;20210;-88
2023/02/22 01:31:35;;;;;;;13.77;7.32;;;;;;;6.04;88.28;97983.75;4194885;28;20219;-88
2023/02/22 01:33:40;;;;;;;11.10;6.78;;;;;;;6.03;88.38;97988.13;4185967;28;20194;-88
2023/02/22 01:35:45;;;;;;;8.93;6.70;;;;;;;6.01;88.61;97989.09;4207308;28;20233;-88
2023/02/22 01:37:48;;;;;;;11.32;7.65;;;;;;;6.00;88.85;97979.66;4189152;28;20206;-88
2023/02/22 01:39:52;;;;;;;14.30;7.70;;;;;;;5.97;88.78;97977.22;4208501;28;20216;-88
2023/02/22 01:41:56;;;;;;;9.85;8.10;;;;;;;5.96;89.24;97983.34;4181328;28;20208;-88
2023/02/22 01:44:20;;;;;;;10.40;7.25;;;;;;;5.96;89.42;97980.75;4219999;28;20292;-87
2023/02/22 01:46:24;;;;;;;10.13;7.25;;;;;;;5.93;88.87;97965.38;4209044;28;20237;-88
2023/02/22 01:48:33;;;;;;;10.77;7.47;;;;;;;5.92;89.66;97963.69;4217853;28;20292;-88
2023/02/22 01:50:39;;;;;;;10.45;7.88;;;;;;;5.94;89.66;97961.84;4209446;28;20218;-88
2023/02/22 01:52:42;;;;;;;11.40;7.40;;;;;;;5.93;89.47;97960.19;4212454;28;20282;-87
2023/02/22 01:54:47;;;;;;;11.63;6.90;;;;;;;5.92;89.46;97949.00;4205052;28;20229;-88
2023/02/22 01:56:59;;;;;;;12.07;7.40;;;;;;;5.91;89.70;97956.84;4205333;28;20201;-88
2023/02/22 01:59:05;;;;;;;12.02;7.38;;;;;;;5.90;89.28;97952.59;4189467;28;20256;-88
2023/02/22 02:01:10;;;;;;;9.10;6.90;;;;;;;5.90;89.35;97948.25;4190499;28;20615;-87
2023/02/22 02:08:48;;;;;;;11.00;7.68;;;;;;;5.84;89.74;97948.56;4172434;28;20251;-81
2023/02/22 02:10:53;;;;;;;16.38;8.05;;;;;;;5.79;89.92;97953.16;4158365;28;20204;-81
2023/02/22 02:12:57;;;;;;;12.30;7.75;;;;;;;5.77;89.45;97951.56;4170581;28;20628;-81
2023/02/22 02:15:18;;;;;;;10.32;7.03;;;;;;;5.74;89.51;97951.72;4168427;28;20210;-81
2023/02/22 02:17:23;;;;;;;17.00;9.63;;;;;;;5.73;89.23;97950.03;4169986;28;20294;-81
2023/02/22 02:19:35;;;;;;;12.90;7.20;;;;;;;5.69;89.58;97945.91;4172387;28;20671;-81
2023/02/22 02:21:59;;;;;;;13.95;7.35;;;;;;;5.69;89.07;97943.31;4171960;28;20209;-81
2023/02/22 02:24:23;;;;;;;9.30;6.90;;;;;;;5.69;89.65;97935.56;4172603;28;20202;-81
2023/02/22 02:26:45;;;;;;;11.00;7.65;;;;;;;5.70;89.92;97934.66;4170245;28;20219;-81
2023/02/22 02:29:11;;;;;;;11.30;7.10;;;;;;;5.67;90.11;97932.22;4178584;28;20262;-81
2023/02/22 02:31:27;;;;;;;13.90;7.45;;;;;;;5.69;90.25;97927.81;4156921;28;20237;-81
2023/02/22 02:33:34;;;;;;;12.88;7.65;;;;;;;5.68;90.48;97936.47;4172521;28;20191;-81
2023/02/22 02:35:48;;;;;;;9.57;7.10;;;;;;;5.66;90.49;97926.19;4167046;28;20211;-81
2023/02/22 02:37:57;;;;;;;12.57;7.20;;;;;;;5.65;89.59;97921.09;4156823;28;20310;-81
2023/02/22 02:40:10;;;;;;;9.10;7.20;;;;;;;5.63;89.76;97925.53;4160058;28;20205;-81
2023/02/22 02:42:17;;;;;;;10.32;6.80;;;;;;;5.63;90.60;97918.59;4171826;28;20812;-79
2023/02/22 02:44:23;;;;;;;9.25;7.05;;;;;;;5.64;90.91;97917.69;4177751;28;20252;-80
2023/02/22 02:46:31;;;;;;;9.77;7.05;;;;;;;5.65;90.26;97914.22;4190078;28;20203;-80
2023/02/22 02:48:39;;;;;;;10.60;7.03;;;;;;;5.65;90.81;97915.94;4170138;28;20702;-80
2023/02/22 02:50:44;;;;;;;11.32;7.63;;;;;;;5.64;90.72;97903.94;4173769;28;20207;-80
2023/02/22 02:52:48;;;;;;;11.48;7.30;;;;;;;5.64;90.95;97906.53;4171193;28;20233;-80
2023/02/22 02:54:52;;;;;;;9.70;7.00;;;;;;;5.64;90.90;97906.53;4174366;28;20405;-80
2023/02/22 02:56:56;;;;;;;11.60;7.35;;;;;;;5.65;90.60;97908.19;4171235;28;20581;-80
2023/02/22 02:59:00;;;;;;;11.50;6.50;;;;;;;5.64;91.06;97902.19;4174264;28;21111;-80
2023/02/22 03:01:06;;;;;;;9.73;6.90;;;;;;;5.66;91.30;97902.94;4169572;28;20206;-80
2023/02/22 03:03:57;;;;;;;11.68;6.45;;;;;;;5.65;90.84;97903.84;4172634;28;20206;-80
2023/02/22 03:06:13;;;;;;;13.40;6.85;;;;;;;5.67;89.98;97901.19;4169715;28;20316;-80
2023/02/22 03:08:23;;;;;;;10.52;7.00;;;;;;;5.67;90.48;97896.03;4184232;28;21097;-80
2023/02/22 03:10:43;;;;;;;12.80;8.38;;;;;;;5.66;90.09;97902.09;4176291;28;20750;-80
2023/02/22 03:12:57;;;;;;;10.07;6.85;;;;;;;5.64;90.31;97896.19;4179498;28;20202;-80
2023/02/22 03:15:08;;;;;;;9.27;6.90;;;;;;;5.63;90.02;97900.50;4170978;28;20245;-80
2023/02/22 03:17:17;;;;;;;9.18;7.15;;;;;;;5.64;90.45;97897.00;4168867;28;20264;-80
2023/02/22 03:19:27;;;;;;;10.55;7.15;;;;;;;5.60;90.73;97892.91;4189904;28;20211;-80
2023/02/22 03:21:33;;;;;;;8.73;6.72;;;;;;;5.60;90.64;97894.66;4168093;28;20201;-80
2023/02/22 03:23:40;;;;;;;10.00;7.07;;;;;;;5.61;90.55;97880.81;4154278;28;20203;-80
2023/02/22 03:25:48;;;;;;;8.88;7.13;;;;;;;5.59;91.46;97887.81;4188435;28;20924;-80
2023/02/22 03:27:53;;;;;;;11.70;7.78;;;;;;;5.59;90.65;97887.81;4185766;28;20287;-80
2023/02/22 03:30:00;;;;;;;9.93;6.85;;;;;;;5.56;90.09;97887.13;4186542;28;20272;-80
2023/02/22 03:32:10;;;;;;;9.48;6.32;;;;;;;5.54;89.68;97879.47;4166360;28;20584;-80
2023/02/22 03:34:17;;;;;;;9.20;6.70;;;;;;;5.54;89.26;97878.63;4180519;28;20208;-80
2023/02/22 03:36:24;;;;;;;9.93;7.00;;;;;;;5.52;88.90;97883.03;4169042;28;20228;-80
2023/02/22 03:38:32;;;;;;;11.02;7.70;;;;;;;5.50;89.29;97877.94;4173857;28;20282;-80
2023/02/22 03:40:38;;;;;;;10.80;7.40;;;;;;;5.53;89.25;97884.72;4160887;28;20337;-80
2023/02/22 03:42:45;;;;;;;10.13;7.32;;;;;;;5.52;90.47;97875.28;4160976;28;20213;-80
2023/02/22 03:44:50;;;;;;;10.18;7.63;;;;;;;5.53;90.79;97877.78;4175043;28;20213;-80
2023/02/22 03:46:55;;;;;;;9.60;7.43;;;;;;;5.54;90.77;97879.47;4158494;28;20207;-80
2023/02/22 03:49:00;;;;;;;9.68;7.10;;;;;;;5.55;90.60;97873.38;4160137;28;20601;-80
2023/02/22 03:51:08;;;;;;;9.40;7.97;;;;;;;5.54;90.87;97869.13;4159261;28;21056;-80
2023/02/22 03:53:12;;;;;;;13.18;7.97;;;;;;;5.54;90.67;97876.88;4169463;28;20214;-80
2023/02/22 03:55:17;;;;;;;9.52;7.50;;;;;;;5.53;90.69;97875.19;4185424;28;20255;-80
2023/02/22 03:57:24;;;;;;;12.55;8.45;;;;;;;5.54;90.96;97879.47;4152878;28;20200;-80
2023/02/22 03:59:39;;;;;;;12.05;7.55;;;;;;;5.53;91.28;97876.94;4156166;28;20213;-80
2023/02/22 04:01:42;;;;;;;9.00;8.00;;;;;;;5.53;91.25;97867.44;4170017;28;20743;-80
2023/02/22 04:03:46;;;;;;;12.60;8.23;;;;;;;5.51;91.53;97869.28;4173776;28;20200;-80
2023/02/22 04:05:50;;;;;;;10.52;8.77;;;;;;;5.49;90.74;97873.69;4153950;28;20339;-80
2023/02/22 04:07:56;;;;;;;13.02;7.60;;;;;;;5.49;91.71;97875.44;4152174;28;20254;-80
2023/02/22 04:10:01;;;;;;;11.13;7.35;;;;;;;5.49;91.87;97875.44;4169491;28;20202;-80
2023/02/22 04:12:07;;;;;;;9.30;7.20;;;;;;;5.49;90.48;97876.28;4169137;28;20771;-80
2023/02/22 04:14:25;;;;;;;9.63;7.97;;;;;;;5.49;91.02;97878.00;4173232;28;20210;-80
2023/02/22 04:16:32;;;;;;;11.75;8.13;;;;;;;5.49;91.41;97881.47;4168643;28;20659;-80
2023/02/22 04:18:35;;;;;;;15.25;9.23;;;;;;;5.48;90.90;97876.38;4158176;28;20203;-81
2023/02/22 04:20:38;;;;;;;11.23;7.40;;;;;;;5.50;91.59;97877.09;4177673;28;20211;-80
2023/02/22 04:22:48;;;;;;;12.93;9.07;;;;;;;5.47;91.56;97872.91;4169948;28;20219;-80
2023/02/22 04:24:52;;;;;;;11.98;7.75;;;;;;;5.45;90.42;97869.59;4151255;28;20605;-80
2023/02/22 04:26:57;;;;;;;12.98;8.45;;;;;;;5.45;91.03;97861.84;4167842;28;20288;-80
2023/02/22 04:29:00;;;;;;;10.50;7.85;;;;;;;5.42;90.54;97868.91;4168828;28;20290;-80
2023/02/22 04:31:10;;;;;;;11.55;8.10;;;;;;;5.39;91.40;97864.72;4183252;28;20719;-80
2023/02/22 04:33:14;;;;;;;14.32;8.60;;;;;;;5.38;90.76;97863.09;4180311;28;20214;-80
2023/02/22 04:35:18;;;;;;;10.98;8.38;;;;;;;5.38;91.05;97857.06;4180100;28;20210;-80
2023/02/22 04:37:21;;;;;;;12.70;8.70;;;;;;;5.39;91.18;97862.16;4169201;28;20207;-80
2023/02/22 04:39:24;;;;;;;9.90;7.95;;;;;;;5.39;91.08;97862.16;4157859;28;20223;-80
2023/02/22 04:41:28;;;;;;;13.35;8.80;;;;;;;5.39;91.08;97862.16;4156698;28;20198;-80
2023/02/22 04:43:32;;;;;;;14.10;8.30;;;;;;;5.40;92.12;97861.25;4164624;28;20218;-80
2023/02/22 04:45:46;;;;;;;14.60;8.73;;;;;;;5.40;91.71;97856.06;4173782;28;20222;-80
2023/02/22 04:47:49;;;;;;;13.38;8.20;;;;;;;5.39;91.12;97856.16;4168461;28;20214;-80
2023/02/22 04:49:53;;;;;;;12.65;9.00;;;;;;;5.39;90.84;97858.75;4160090;28;20618;-80
2023/02/22 04:51:56;;;;;;;14.80;8.30;;;;;;;5.37;91.36;97858.81;4175839;28;20668;-80
2023/02/22 04:54:06;;;;;;;11.90;9.00;;;;;;;5.34;91.35;97850.41;4156460;28;20222;-80
2023/02/22 04:56:12;;;;;;;13.82;8.32;;;;;;;5.33;90.89;97849.53;4171581;28;20206;-80
2023/02/22 04:58:15;;;;;;;15.48;9.45;;;;;;;5.33;90.38;97859.88;4175772;28;20203;-80
2023/02/22 05:00:21;;;;;;;13.65;8.52;;;;;;;5.29;90.74;97857.53;4161012;28;20641;-80
2023/02/22 05:02:26;;;;;;;14.73;9.15;;;;;;;5.26;90.50;97849.94;4187260;28;20209;-80
2023/02/22 05:04:29;;;;;;;14.50;8.63;;;;;;;5.26;90.58;97855.97;4161611;28;20235;-80
2023/02/22 05:06:32;;;;;;;15.32;7.97;;;;;;;5.25;90.19;97856.03;4180400;28;20225;-80
2023/02/22 05:08:35;;;;;;;13.02;9.35;;;;;;;5.22;90.56;97854.44;4172944;28;20226;-80
2023/02/22 05:10:39;;;;;;;14.48;8.90;;;;;;;5.21;91.00;97849.34;4174523;28;20214;-80
2023/02/22 05:12:42;;;;;;;11.52;8.23;;;;;;;5.19;91.16;97841.66;4173865;28;20406;-80
2023/02/22 05:14:45;;;;;;;14.45;8.57;;;;;;;5.18;90.72;97834.81;4178645;28;20239;-80
2023/02/22 05:16:50;;;;;;;13.82;9.30;;;;;;;5.22;91.66;97840.69;4177133;28;20209;-80
2023/02/22 05:18:53;;;;;;;11.32;9.05;;;;;;;5.22;91.72;97845.84;4171549;28;20649;-80
2023/02/22 05:20:56;;;;;;;13.07;9.05;;;;;;;5.18;91.71;97834.81;4187966;28;20207;-80
2023/02/22 05:23:01;;;;;;;10.55;8.25;;;;;;;5.17;91.53;97833.16;4163187;28;20207;-80
2023/02/22 05:25:04;;;;;;;11.32;8.10;;;;;;;5.17;91.30;97830.59;4172794;28;20490;-80
2023/02/22 05:27:07;;;;;;;13.32;8.93;;;;;;;5.16;90.37;97831.47;4172063;28;20221;-80
2023/02/22 05:29:11;;;;;;;10.20;8.45;;;;;;;5.15;90.56;97829.81;4156517;28;20579;-81
2023/02/22 05:31:14;;;;;;;15.13;9.43;;;;;;;5.16;90.47;97831.47;4179202;28;20666;-81
2023/02/22 05:33:19;;;;;;;10.23;7.80;;;;;;;5.16;91.39;97835.81;4172396;28;20204;-80
2023/02/22 05:35:23;;;;;;;13.88;8.30;;;;;;;5.15;91.45;97829.81;4153328;28;20199;-80
2023/02/22 05:37:26;;;;;;;10.63;8.30;;;;;;;5.15;91.70;97827.22;4170199;28;20211;-80
2023/02/22 05:39:30;;;;;;;18.80;8.70;;;;;;;5.18;91.13;97829.66;4176880;28;20250;-80
2023/02/22 05:41:33;;;;;;;10.80;8.20;;;;;;;5.19;91.07;97827.91;4173399;28;20215;-79
2023/02/22 05:43:36;;;;;;;14.30;9.27;;;;;;;5.17;90.84;97828.00;4169116;28;20208;-80
2023/02/22 05:45:39;;;;;;;14.38;9.82;;;;;;;5.17;91.89;97827.13;4171390;28;20266;-80
2023/02/22 05:47:42;;;;;;;14.98;9.10;;;;;;;5.15;91.47;97824.63;4170402;28;20234;-80
2023/02/22 05:49:47;;;;;;;15.63;10.27;;;;;;;5.16;92.17;97826.31;4175184;28;20205;-80
2023/02/22 05:51:50;;;;;;;11.95;9.20;;;;;;;5.18;92.05;97831.41;4154511;28;20841;-82
2023/02/22 05:53:53;;;;;;;13.02;9.38;;;;;;;5.20;91.56;97834.72;4169845;28;20629;-82
2023/02/22 05:55:56;;;;;;;11.10;8.73;;;;;;;5.18;91.54;97826.22;4170911;28;20341;-82
2023/02/22 05:58:00;;;;;;;12.13;8.25;;;;;;;5.15;91.16;97822.06;4154746;28;20244;-83
2023/02/22 06:00:05;;;;;;;11.68;8.27;;;;;;;5.18;91.28;97823.66;4173461;28;20202;-82
2023/02/22 06:02:14;;;;;;;14.15;8.73;;;;;;;5.16;91.76;97828.06;4173569;28;20206;-82
2023/02/22 06:04:18;;;;;;;14.13;8.50;;;;;;;5.14;91.81;97825.56;4168209;28;20222;-82
2023/02/22 06:06:23;;;;;;;11.35;8.95;;;;;;;5.14;92.21;97828.16;4169087;28;20242;-82
2023/02/22 06:08:26;;;;;;;14.27;8.77;;;;;;;5.15;91.54;97824.63;4156435;28;20215;-82
2023/02/22 06:10:30;;;;;;;10.27;8.60;;;;;;;5.15;92.28;97823.81;4174992;28;20213;-83
2023/02/22 06:12:33;;;;;;;16.00;8.82;;;;;;;5.14;92.10;97828.16;4173371;28;20235;-82
2023/02/22 06:14:36;;;;;;;11.10;8.38;;;;;;;5.13;92.25;97828.22;4162348;28;20211;-82
2023/02/22 06:16:39;;;;;;;11.70;8.80;;;;;;;5.13;91.60;97829.06;4171732;28;20225;-80
2023/02/22 06:18:42;;;;;;;12.18;8.50;;;;;;;5.14;91.56;97830.75;4174824;28;20285;-80
2023/02/22 06:20:45;;;;;;;11.48;8.63;;;;;;;5.15;92.18;97829.81;4173073;28;20593;-81
2023/02/22 06:22:51;;;;;;;14.00;8.85;;;;;;;5.15;91.43;97829.81;4153833;28;20219;-82
2023/02/22 06:24:54;;;;;;;18.23;11.07;;;;;;;5.16;91.66;97830.66;4166422;28;20250;-82
2023/02/22 06:26:59;;;;;;;19.25;12.52;;;;;;;5.15;92.23;97832.38;4171914;28;20239;-82
2023/02/22 06:29:04;;;;;;;17.60;12.35;;;;;;;5.15;92.23;97834.16;4169412;28;20460;-82
2023/02/22 06:31:08;;;;;;;16.98;9.15;;;;;;;5.14;91.94;97832.47;4151585;28;20222;-82
2023/02/22 06:33:11;;;;;;;14.57;10.57;;;;;;;5.14;91.96;97835.06;4152978;28;20714;-82
2023/02/22 06:35:14;;;;;;;14.68;10.90;;;;;;;5.16;92.05;97841.00;4172848;28;20224;-82
2023/02/22 06:37:18;;;;;;;12.75;8.77;;;;;;;5.20;91.46;97843.34;4176299;28;20194;-82
2023/02/22 06:39:24;;;;;;;14.50;10.15;;;;;;;5.29;92.03;97842.03;4157722;28;20699;-82
2023/02/22 06:41:27;;;;;;;15.25;9.55;;;;;;;5.37;92.06;97840.72;4170999;28;20321;-82
2023/02/22 06:43:30;;;;;;;13.10;9.05;;;;;;;5.45;92.19;97848.06;4168600;28;20225;-82
2023/02/22 06:45:33;;;;;;;12.55;9.15;;;;;;;5.57;92.33;97843.09;4171802;28;20698;-82
2023/02/22 06:47:40;;;;;;;11.38;9.13;;;;;;;5.66;91.71;97850.38;4167178;28;20228;-82
2023/02/22 06:49:43;;;;;;;12.88;8.82;;;;;;;5.75;92.10;97847.31;4171680;28;20211;-82
2023/02/22 06:51:46;;;;;;;10.85;7.88;;;;;;;5.84;91.77;97858.00;4174815;28;20205;-82
2023/02/22 06:53:49;;;;;;;12.68;9.10;;;;;;;5.87;91.17;97854.44;4171061;28;20201;-82
2023/02/22 06:55:55;;;;;;;14.48;8.65;;;;;;;5.94;91.04;97863.53;4153061;28;20202;-82
2023/02/22 06:57:58;;;;;;;14.15;8.50;;;;;;;5.97;91.14;97863.34;4158694;28;20698;-82
2023/02/22 07:00:01;;;;;;;13.32;8.25;;;;;;;5.99;91.33;97859.78;4171765;28;20234;-82
2023/02/22 07:02:05;;;;;;;13.15;8.75;;;;;;;6.04;91.14;97859.53;4169142;28;20618;-82
2023/02/22 07:04:09;;;;;;;12.63;8.90;;;;;;;6.06;90.75;97865.44;4170014;28;20214;-82
2023/02/22 07:06:12;;;;;;;12.45;8.63;;;;;;;6.11;91.36;97859.94;4159744;28;20235;-82
2023/02/22 07:08:15;;;;;;;13.45;9.20;;;;;;;6.19;91.28;97868.16;4174138;28;20302;-82
2023/02/22 07:10:21;;;;;;;11.50;8.43;;;;;;;6.27;91.40;97865.97;4169400;28;20386;-82
2023/02/22 07:12:25;;;;;;;13.07;9.65;;;;;;;6.35;91.30;97871.53;4173562;28;20235;-82
2023/02/22 07:14:29;;;;;;;12.88;9.65;;;;;;;6.42;90.71;97866.84;4170743;28;20698;-82
2023/02/22 07:16:33;;;;;;;15.02;10.60;;;;;;;6.53;90.62;97878.31;4173491;28;20814;-82
2023/02/22 07:18:36;;;;;;;12.27;10.27;;;;;;;6.64;90.23;97881.13;4176964;28;20626;-82
2023/02/22 07:20:40;;;;;;;11.75;9.48;;;;;;;6.79;89.97;97888.03;4169642;28;20223;-82
2023/02/22 07:22:43;;;;;;;16.15;9.95;;;;;;;6.90;89.17;97890.84;4158162;28;20240;-82
2023/02/22 07:24:47;;;;;;;13.73;10.18;;;;;;;6.88;89.29;97884.91;4158978;28;20220;-82
2023/02/22 07:26:50;;;;;;;14.60;9.90;;;;;;;6.95;89.44;97892.25;4168348;28;20233;-82
2023/02/22 07:28:54;;;;;;;15.07;10.20;;;;;;;7.04;88.55;97896.91;4173660;28;20228;-83
2023/02/22 07:30:57;;;;;;;15.80;11.02;;;;;;;7.17;89.54;97893.53;4183826;28;20211;-83
2023/02/22 07:33:03;;;;;;;13.00;10.63;;;;;;;7.28;89.34;97895.50;4167435;28;20611;-82
2023/02/22 07:35:07;;;;;;;11.90;9.45;;;;;;;7.38;87.75;97899.19;4164594;28;20215;-82
2023/02/22 07:37:10;;;;;;;13.52;9.50;;;;;;;7.50;88.36;97899.31;4163346;28;20267;-82
2023/02/22 07:39:13;;;;;;;13.73;10.07;;;;;;;7.63;87.98;97903.69;4166870;28;20202;-82
2023/02/22 07:41:16;;;;;;;11.50;10.30;;;;;;;7.77;86.53;97898.53;4184300;28;20198;-82
2023/02/22 07:43:21;;;;;;;14.13;9.65;;;;;;;7.90;87.02;97898.59;4150434;28;20644;-82
2023/02/22 07:45:28;;;;;;;12.20;9.60;;;;;;;7.93;87.82;97904.44;4158557;28;20240;-83
2023/02/22 07:47:32;;;;;;;13.50;10.60;;;;;;;8.00;87.24;97906.56;4175042;28;20261;-82
2023/02/22 07:49:35;;;;;;;15.95;11.00;;;;;;;8.12;86.44;97915.41;4176607;28;20201;-82
2023/02/22 07:51:38;;;;;;;14.93;10.60;;;;;;;8.23;87.56;97903.41;4160298;28;20631;-82
2023/02/22 07:53:41;;;;;;;17.88;11.18;;;;;;;8.36;86.45;97909.53;4170622;28;20235;-82
2023/02/22 07:55:44;;;;;;;14.40;11.07;;;;;;;8.47;87.18;97907.91;4181072;28;20219;-82
2023/02/22 07:57:48;;;;;;;14.75;11.52;;;;;;;8.52;85.66;97907.63;4156396;28;20208;-82
2023/02/22 07:59:51;;;;;;;17.52;13.02;;;;;;;8.52;84.86;97910.22;4172519;28;20649;-82
2023/02/22 08:01:56;;;;;;;19.92;14.00;;;;;;;8.59;85.22;97906.31;4155472;28;20209;-82
2023/02/22 08:03:59;;;;;;;19.60;13.43;;;;;;;8.73;84.88;97903.66;4170947;28;20230;-82
2023/02/22 08:06:03;;;;;;;17.17;13.45;;;;;;;8.90;84.44;97903.41;4171537;28;20222;-82
2023/02/22 08:08:07;;;;;;;19.52;14.90;;;;;;;9.04;83.53;97912.81;4170020;28;20235;-82
2023/02/22 08:10:10;;;;;;;17.40;11.35;;;;;;;9.18;84.20;97909.31;4168727;28;20224;-82
2023/02/22 08:12:15;;;;;;;12.02;10.13;;;;;;;9.34;84.21;97917.78;4176307;28;20301;-82
2023/02/22 08:14:18;;;;;;;16.25;11.95;;;;;;;9.49;84.53;97917.59;4175419;28;20738;-83
2023/02/22 08:16:21;;;;;;;14.25;10.95;;;;;;;9.62;83.81;97913.22;4170839;28;20201;-82
2023/02/22 08:18:26;;;;;;;16.65;11.70;;;;;;;9.72;82.13;97907.28;4172384;28;20210;-82
2023/02/22 08:20:29;;;;;;;15.50;11.40;;;;;;;9.84;83.47;97915.09;4172160;28;20649;-82
2023/02/22 08:22:33;;;;;;;17.58;11.25;;;;;;;9.84;81.73;97916.06;4184203;28;20233;-82
2023/02/22 08:24:36;;;;;;;12.15;9.98;;;;;;;9.76;82.64;97911.38;4162044;28;20660;-83
2023/02/22 08:26:44;;;;;;;15.18;10.40;;;;;;;9.65;82.83;97913.00;4159555;28;20276;-83
2023/02/22 08:28:48;;;;;;;13.13;10.43;;;;;;;9.58;83.43;97911.78;4170693;28;20230;-83
2023/02/22 08:30:52;;;;;;;14.95;10.30;;;;;;;9.52;84.13;97904.38;4184165;28;21469;-83
2023/02/22 08:32:55;;;;;;;12.32;10.15;;;;;;;9.48;85.06;97908.94;4171189;28;20210;-82
2023/02/22 08:35:00;;;;;;;14.18;10.32;;;;;;;9.52;84.54;97909.59;4177776;28;20734;-83
2023/02/22 08:37:03;;;;;;;12.68;10.00;;;;;;;9.54;84.70;97905.91;4173715;28;20256;-83
2023/02/22 08:39:06;;;;;;;12.85;9.70;;;;;;;9.53;84.40;97908.63;4176469;28;20252;-83
2023/02/22 08:41:09;;;;;;;11.43;9.55;;;;;;;9.58;85.09;97906.56;4178244;28;20214;-80
2023/02/22 08:43:13;;;;;;;12.32;9.20;;;;;;;9.64;85.08;97911.38;4178612;28;20781;-80
2023/02/22 08:45:16;;;;;;;13.20;10.00;;;;;;;9.67;84.25;97911.16;4167226;28;20554;-80
2023/02/22 08:47:19;;;;;;;11.60;8.93;;;;;;;9.72;84.59;97909.06;4174779;28;20209;-80
2023/02/22 08:49:22;;;;;;;11.30;8.80;;;;;;;9.80;85.69;97907.59;4156516;28;20653;-80
2023/02/22 08:51:27;;;;;;;11.20;9.43;;;;;;;9.95;86.87;97906.56;4187307;28;20210;-80
2023/02/22 08:53:31;;;;;;;12.60;10.23;;;;;;;10.18;86.96;97911.88;4176500;28;21167;-80
2023/02/22 08:55:36;;;;;;;12.00;9.85;;;;;;;10.43;86.37;97915.28;4175035;28;20305;-80
2023/02/22 08:57:39;;;;;;;11.55;8.82;;;;;;;10.70;85.34;97917.69;4175092;28;20284;-80
2023/02/22 08:59:42;;;;;;;11.43;9.00;;;;;;;10.86;83.83;97924.31;4169688;28;20214;-80
2023/02/22 09:01:45;;;;;;;11.15;8.98;;;;;;;11.04;84.25;97922.97;4185649;28;20670;-80
2023/02/22 09:03:49;;;;;;;13.77;9.63;;;;;;;11.17;84.32;97916.75;4184905;28;20213;-80
2023/02/22 09:05:52;;;;;;;10.57;9.02;;;;;;;11.33;84.50;97922.50;4171063;28;21263;-80
2023/02/22 09:07:57;;;;;;;11.80;8.07;;;;;;;11.44;83.20;97917.28;4178399;28;20271;-80
2023/02/22 09:10:00;;;;;;;14.97;9.90;;;;;;;11.50;83.88;97915.13;4174601;28;20317;-80
2023/02/22 09:12:04;;;;;;;11.93;9.20;;;;;;;11.54;83.75;97913.09;4170125;28;20641;-80
2023/02/22 09:14:07;;;;;;;11.80;9.63;;;;;;;11.64;84.25;97914.09;4174479;28;20616;-80
2023/02/22 09:16:10;;;;;;;11.77;8.97;;;;;;;11.78;84.13;97910.28;4174544;28;20711;-80
2023/02/22 09:18:16;;;;;;;11.83;8.93;;;;;;;11.79;83.22;97914.56;4177813;28;20724;-80
2023/02/22 09:20:22;;;;;;;12.90;8.90;;;;;;;11.89;82.64;97907.72;4186315;28;20658;-80
2023/02/22 09:22:25;;;;;;;9.83;8.83;;;;;;;12.03;83.38;97911.88;4171891;28;21042;-80
2023/02/22 09:24:30;;;;;;;10.27;8.63;;;;;;;12.29;82.81;97911.50;4188026;28;20631;-80
2023/02/22 09:26:33;;;;;;;10.30;8.17;;;;;;;12.55;83.73;97921.59;4162822;28;21286;-80
2023/02/22 09:28:36;;;;;;;10.60;8.60;;;;;;;12.66;82.19;97921.59;4179430;28;20628;-80
2023/02/22 09:30:40;;;;;;;12.47;9.70;;;;;;;12.63;82.35;97913.13;4157667;28;20641;-80
2023/02/22 09:32:43;;;;;;;10.20;9.00;;;;;;;12.61;82.24;97918.47;4178122;28;20678;-80
2023/02/22 09:34:46;;;;;;;15.00;11.60;;;;;;;12.72;80.61;97911.47;4172452;28;21222;-80
2023/02/22 09:36:50;;;;;;;11.13;9.97;;;;;;;12.70;78.41;97921.22;4165987;28;20613;-80
2023/02/22 09:38:53;;;;;;;11.83;9.80;;;;;;;12.75;79.35;97919.06;4169063;28;20728;-80
2023/02/22 09:41:07;;;;;;;11.70;10.23;;;;;;;12.93;78.93;97920.25;4168894;28;21053;-80
2023/02/22 09:43:24;;;;;;;17.73;11.63;;;;;;;12.98;79.98;97914.66;4170554;28;20653;-80
2023/02/22 09:45:31;;;;;;;12.57;10.27;;;;;;;13.07;78.58;97912.09;4188846;28;20716;-82
2023/02/22 09:47:39;;;;;;;14.63;11.37;;;;;;;13.15;78.54;97909.69;4177788;28;21258;-82
2023/02/22 09:49:46;;;;;;;14.70;11.60;;;;;;;13.11;79.33;97910.91;4172654;28;20663;-82
2023/02/22 09:51:52;;;;;;;15.43;11.00;;;;;;;13.14;78.28;97908.03;4162687;28;21185;-82
2023/02/22 09:53:59;;;;;;;12.87;10.53;;;;;;;13.18;77.93;97902.44;4175306;28;20616;-82
2023/02/22 09:56:05;;;;;;;14.33;11.10;;;;;;;13.25;77.95;97911.44;4160394;28;20617;-82
2023/02/22 09:58:16;;;;;;;12.57;10.97;;;;;;;13.31;77.63;97903.06;4172012;28;20669;-80